sensor_id;sensor_type;location;lat;lon;timestamp;temperature;humidity
9466;DHT22;4771;48.726;9.006;2023-12-20T00:00:21;7.00;99.90
9466;DHT22;4771;48.726;9.006;2023-12-20T00:02:48;7.10;99.90
9466;DHT22;4771;48.726;9.006;2023-12-20T00:05:14;7.00;99.90
9466;DHT22;4771;48.726;9.006;2023-12-20T00:07:41;7.00;99.90
9466;DHT22;4771;48.726;9.006;2023-12-20T00:10:09;7.10;99.90
9466;DHT22;4771;48.726;9.006;2023-12-20T00:12:35;7.10;99.90
9466;DHT22;4771;48.726;9.006;2023-12-20T00:15:04;7.10;99.90
9466;DHT22;4771;48.726;9.006;2023-12-20T00:17:31;7.10;99.90
9466;DHT22;4771;48.726;9.006;2023-12-20T00:20:02;7.10;99.90
9466;DHT22;4771;48.726;9.006;2023-12-20T00:22:29;7.10;99.90
9466;DHT22;4771;48.726;9.006;2023-12-20T00:24:55;7.10;99.90
9466;DHT22;4771;48.726;9.006;2023-12-20T00:27:22;7.10;99.90
9466;DHT22;4771;48.726;9.006;2023-12-20T00:29:49;7.10;99.90
9466;DHT22;4771;48.726;9.006;2023-12-20T00:32:18;7.10;99.90
9466;DHT22;4771;48.726;9.006;2023-12-20T00:34:45;7.10;99.90
9466;DHT22;4771;48.726;9.006;2023-12-20T00:37:11;7.10;99.90
9466;DHT22;4771;48.726;9.006;2023-12-20T00:39:38;7.10;99.90
9466;DHT22;4771;48.726;9.006;2023-12-20T00:42:05;7.10;99.90
9466;DHT22;4771;48.726;9.006;2023-12-20T00:44:32;7.10;99.90
9466;DHT22;4771;48.726;9.006;2023-12-20T00:46:59;7.10;99.90
9466;DHT22;4771;48.726;9.006;2023-12-20T00:49:28;7.10;99.90
9466;DHT22;4771;48.726;9.006;2023-12-20T00:51:54;7.00;99.90
9466;DHT22;4771;48.726;9.006;2023-12-20T00:54:21;7.00;99.90
9466;DHT22;4771;48.726;9.006;2023-12-20T00:56:48;7.00;99.90
9466;DHT22;4771;48.726;9.006;2023-12-20T00:59:16;7.00;99.90
9466;DHT22;4771;48.726;9.006;2023-12-20T01:01:43;7.00;99.90
9466;DHT22;4771;48.726;9.006;2023-12-20T01:04:10;7.00;99.90
9466;DHT22;4771;48.726;9.006;2023-12-20T01:06:38;7.00;99.90
9466;DHT22;4771;48.726;9.006;2023-12-20T01:09:05;7.00;99.90
9466;DHT22;4771;48.726;9.006;2023-12-20T01:11:32;7.00;99.90
9466;DHT22;4771;48.726;9.006;2023-12-20T01:13:59;7.00;99.90
9466;DHT22;4771;48.726;9.006;2023-12-20T01:16:26;6.90;99.90
9466;DHT22;4771;48.726;9.006;2023-12-20T01:18:52;7.00;99.90
9466;DHT22;4771;48.726;9.006;2023-12-20T01:21:19;7.00;99.90
9466;DHT22;4771;48.726;9.006;2023-12-20T01:23:47;6.90;99.90
9466;DHT22;4771;48.726;9.006;2023-12-20T01:26:15;6.90;99.90
9466;DHT22;4771;48.726;9.006;2023-12-20T01:28:42;6.90;99.90
9466;DHT22;4771;48.726;9.006;2023-12-20T01:31:09;6.90;99.90
9466;DHT22;4771;48.726;9.006;2023-12-20T01:33:36;6.90;99.90
9466;DHT22;4771;48.726;9.006;2023-12-20T01:36:03;6.90;99.90
9466;DHT22;4771;48.726;9.006;2023-12-20T01:38:30;6.90;99.90
9466;DHT22;4771;48.726;9.006;2023-12-20T01:40:59;6.90;99.90
9466;DHT22;4771;48.726;9.006;2023-12-20T01:43:26;6.90;99.90
9466;DHT22;4771;48.726;9.006;2023-12-20T01:45:53;6.90;99.90
9466;DHT22;4771;48.726;9.006;2023-12-20T01:48:21;6.90;99.90
9466;DHT22;4771;48.726;9.006;2023-12-20T01:50:49;6.90;99.90
9466;DHT22;4771;48.726;9.006;2023-12-20T01:53:16;6.90;99.90
9466;DHT22;4771;48.726;9.006;2023-12-20T01:55:44;6.90;99.90
9466;DHT22;4771;48.726;9.006;2023-12-20T01:58:12;6.90;99.90
9466;DHT22;4771;48.726;9.006;2023-12-20T02:00:40;6.90;99.90
9466;DHT22;4771;48.726;9.006;2023-12-20T02:03:07;6.90;99.90
9466;DHT22;4771;48.726;9.006;2023-12-20T02:05:35;6.90;99.90
9466;DHT22;4771;48.726;9.006;2023-12-20T02:08:02;6.90;99.90
9466;DHT22;4771;48.726;9.006;2023-12-20T02:10:30;6.90;99.90
9466;DHT22;4771;48.726;9.006;2023-12-20T02:12:56;6.90;99.90
9466;DHT22;4771;48.726;9.006;2023-12-20T02:15:25;6.90;99.90
9466;DHT22;4771;48.726;9.006;2023-12-20T02:17:52;6.90;99.90
9466;DHT22;4771;48.726;9.006;2023-12-20T02:20:20;6.90;99.90
9466;DHT22;4771;48.726;9.006;2023-12-20T02:22:48;6.90;99.90
9466;DHT22;4771;48.726;9.006;2023-12-20T02:25:15;6.90;99.90
9466;DHT22;4771;48.726;9.006;2023-12-20T02:27:42;6.80;99.90
9466;DHT22;4771;48.726;9.006;2023-12-20T02:30:10;6.90;99.90
9466;DHT22;4771;48.726;9.006;2023-12-20T02:32:37;6.90;99.90
9466;DHT22;4771;48.726;9.006;2023-12-20T02:35:04;6.90;99.90
9466;DHT22;4771;48.726;9.006;2023-12-20T02:37:32;6.90;99.90
9466;DHT22;4771;48.726;9.006;2023-12-20T02:40:01;6.90;99.90
9466;DHT22;4771;48.726;9.006;2023-12-20T02:42:28;6.90;99.90
9466;DHT22;4771;48.726;9.006;2023-12-20T02:44:55;6.90;99.90
9466;DHT22;4771;48.726;9.006;2023-12-20T02:47:22;6.90;99.90
9466;DHT22;4771;48.726;9.006;2023-12-20T02:49:49;7.00;99.90
9466;DHT22;4771;48.726;9.006;2023-12-20T02:52:16;7.00;99.90
9466;DHT22;4771;48.726;9.006;2023-12-20T02:54:43;7.00;99.90
9466;DHT22;4771;48.726;9.006;2023-12-20T02:57:11;7.00;99.90
9466;DHT22;4771;48.726;9.006;2023-12-20T02:59:38;7.00;99.90
9466;DHT22;4771;48.726;9.006;2023-12-20T03:02:04;7.00;99.90
9466;DHT22;4771;48.726;9.006;2023-12-20T03:04:31;7.00;99.90
9466;DHT22;4771;48.726;9.006;2023-12-20T03:06:58;7.00;99.90
9466;DHT22;4771;48.726;9.006;2023-12-20T03:09:25;7.00;99.90
9466;DHT22;4771;48.726;9.006;2023-12-20T03:11:52;7.00;99.90
9466;DHT22;4771;48.726;9.006;2023-12-20T03:14:20;7.00;99.90
9466;DHT22;4771;48.726;9.006;2023-12-20T03:16:47;7.00;99.90
9466;DHT22;4771;48.726;9.006;2023-12-20T03:19:15;7.00;99.90
9466;DHT22;4771;48.726;9.006;2023-12-20T03:21:42;7.10;99.90
9466;DHT22;4771;48.726;9.006;2023-12-20T03:24:09;7.00;99.90
9466;DHT22;4771;48.726;9.006;2023-12-20T03:26:36;7.00;99.90
9466;DHT22;4771;48.726;9.006;2023-12-20T03:29:03;7.00;99.90
9466;DHT22;4771;48.726;9.006;2023-12-20T03:31:31;7.00;99.90
9466;DHT22;4771;48.726;9.006;2023-12-20T03:33:58;6.80;99.90
9466;DHT22;4771;48.726;9.006;2023-12-20T03:36:25;6.80;99.90
9466;DHT22;4771;48.726;9.006;2023-12-20T03:38:52;6.70;99.90
9466;DHT22;4771;48.726;9.006;2023-12-20T03:41:18;6.50;99.90
9466;DHT22;4771;48.726;9.006;2023-12-20T03:43:45;6.30;99.90
9466;DHT22;4771;48.726;9.006;2023-12-20T03:46:12;6.30;99.90
9466;DHT22;4771;48.726;9.006;2023-12-20T03:48:40;6.10;99.90
9466;DHT22;4771;48.726;9.006;2023-12-20T03:51:07;6.10;99.90
9466;DHT22;4771;48.726;9.006;2023-12-20T03:53:34;6.00;99.90
9466;DHT22;4771;48.726;9.006;2023-12-20T03:56:01;5.90;99.90
9466;DHT22;4771;48.726;9.006;2023-12-20T03:58:30;5.80;99.90
9466;DHT22;4771;48.726;9.006;2023-12-20T04:00:57;5.80;99.90
9466;DHT22;4771;48.726;9.006;2023-12-20T04:03:23;5.80;99.90
9466;DHT22;4771;48.726;9.006;2023-12-20T04:05:52;5.70;99.90
9466;DHT22;4771;48.726;9.006;2023-12-20T04:08:19;5.70;99.90
9466;DHT22;4771;48.726;9.006;2023-12-20T04:10:46;5.80;99.90
9466;DHT22;4771;48.726;9.006;2023-12-20T04:13:13;5.80;99.90
9466;DHT22;4771;48.726;9.006;2023-12-20T04:15:40;5.90;99.90
9466;DHT22;4771;48.726;9.006;2023-12-20T04:18:07;6.00;99.90
9466;DHT22;4771;48.726;9.006;2023-12-20T04:20:34;6.00;99.90
9466;DHT22;4771;48.726;9.006;2023-12-20T04:23:02;6.00;99.90
9466;DHT22;4771;48.726;9.006;2023-12-20T04:25:29;5.90;99.90
9466;DHT22;4771;48.726;9.006;2023-12-20T04:27:56;5.90;99.90
9466;DHT22;4771;48.726;9.006;2023-12-20T04:30:23;5.80;99.90
9466;DHT22;4771;48.726;9.006;2023-12-20T04:32:49;5.80;99.90
9466;DHT22;4771;48.726;9.006;2023-12-20T04:35:16;5.80;99.90
9466;DHT22;4771;48.726;9.006;2023-12-20T04:37:43;5.80;99.90
9466;DHT22;4771;48.726;9.006;2023-12-20T04:40:11;5.90;99.90
9466;DHT22;4771;48.726;9.006;2023-12-20T04:42:38;5.80;99.90
9466;DHT22;4771;48.726;9.006;2023-12-20T04:45:06;5.80;99.90
9466;DHT22;4771;48.726;9.006;2023-12-20T04:47:33;5.80;99.90
9466;DHT22;4771;48.726;9.006;2023-12-20T04:50:00;5.70;99.90
9466;DHT22;4771;48.726;9.006;2023-12-20T04:52:27;5.80;99.90
9466;DHT22;4771;48.726;9.006;2023-12-20T04:54:54;5.80;99.90
9466;DHT22;4771;48.726;9.006;2023-12-20T04:57:22;5.80;99.90
9466;DHT22;4771;48.726;9.006;2023-12-20T04:59:49;5.80;99.90
9466;DHT22;4771;48.726;9.006;2023-12-20T05:02:16;5.90;99.90
9466;DHT22;4771;48.726;9.006;2023-12-20T05:04:43;5.90;99.90
9466;DHT22;4771;48.726;9.006;2023-12-20T05:07:10;5.90;99.90
9466;DHT22;4771;48.726;9.006;2023-12-20T05:09:36;5.90;99.90
9466;DHT22;4771;48.726;9.006;2023-12-20T05:12:04;6.00;99.90
9466;DHT22;4771;48.726;9.006;2023-12-20T05:14:32;6.00;99.90
9466;DHT22;4771;48.726;9.006;2023-12-20T05:16:59;5.90;99.90
9466;DHT22;4771;48.726;9.006;2023-12-20T05:19:26;6.00;99.90
9466;DHT22;4771;48.726;9.006;2023-12-20T05:21:53;6.00;99.90
9466;DHT22;4771;48.726;9.006;2023-12-20T05:24:20;6.00;99.90
9466;DHT22;4771;48.726;9.006;2023-12-20T05:26:47;6.10;99.90
9466;DHT22;4771;48.726;9.006;2023-12-20T05:29:13;6.10;99.90
9466;DHT22;4771;48.726;9.006;2023-12-20T05:31:42;6.00;99.90
9466;DHT22;4771;48.726;9.006;2023-12-20T05:34:08;6.10;99.90
9466;DHT22;4771;48.726;9.006;2023-12-20T05:36:36;6.10;99.90
9466;DHT22;4771;48.726;9.006;2023-12-20T05:39:03;6.10;99.90
9466;DHT22;4771;48.726;9.006;2023-12-20T05:41:30;6.20;99.90
9466;DHT22;4771;48.726;9.006;2023-12-20T05:43:57;6.30;99.90
9466;DHT22;4771;48.726;9.006;2023-12-20T05:46:24;6.30;99.90
9466;DHT22;4771;48.726;9.006;2023-12-20T05:48:53;6.40;99.90
9466;DHT22;4771;48.726;9.006;2023-12-20T05:51:19;6.30;99.90
9466;DHT22;4771;48.726;9.006;2023-12-20T05:53:46;6.40;99.90
9466;DHT22;4771;48.726;9.006;2023-12-20T05:56:15;6.40;99.90
9466;DHT22;4771;48.726;9.006;2023-12-20T05:58:42;6.30;99.90
9466;DHT22;4771;48.726;9.006;2023-12-20T06:01:09;6.20;99.90
9466;DHT22;4771;48.726;9.006;2023-12-20T06:03:36;6.20;99.90
9466;DHT22;4771;48.726;9.006;2023-12-20T06:06:06;6.20;99.90
9466;DHT22;4771;48.726;9.006;2023-12-20T06:08:33;6.20;99.90
9466;DHT22;4771;48.726;9.006;2023-12-20T06:11:00;6.20;99.90
9466;DHT22;4771;48.726;9.006;2023-12-20T06:13:27;6.30;99.90
9466;DHT22;4771;48.726;9.006;2023-12-20T06:15:54;6.30;99.90
9466;DHT22;4771;48.726;9.006;2023-12-20T06:18:21;6.30;99.90
9466;DHT22;4771;48.726;9.006;2023-12-20T06:20:48;6.30;99.90
9466;DHT22;4771;48.726;9.006;2023-12-20T06:23:16;6.30;99.90
9466;DHT22;4771;48.726;9.006;2023-12-20T06:25:44;6.40;99.90
9466;DHT22;4771;48.726;9.006;2023-12-20T06:28:11;6.40;99.90
9466;DHT22;4771;48.726;9.006;2023-12-20T06:30:40;6.40;99.90
9466;DHT22;4771;48.726;9.006;2023-12-20T06:33:06;6.40;99.90
9466;DHT22;4771;48.726;9.006;2023-12-20T06:35:35;6.30;99.90
9466;DHT22;4771;48.726;9.006;2023-12-20T06:38:03;6.30;99.90
9466;DHT22;4771;48.726;9.006;2023-12-20T06:40:31;6.20;99.90
9466;DHT22;4771;48.726;9.006;2023-12-20T06:42:58;6.20;99.90
9466;DHT22;4771;48.726;9.006;2023-12-20T06:45:25;6.20;99.90
9466;DHT22;4771;48.726;9.006;2023-12-20T06:47:52;6.30;99.90
9466;DHT22;4771;48.726;9.006;2023-12-20T06:50:20;6.30;99.90
9466;DHT22;4771;48.726;9.006;2023-12-20T06:52:47;6.30;99.90
9466;DHT22;4771;48.726;9.006;2023-12-20T06:55:14;6.30;99.90
9466;DHT22;4771;48.726;9.006;2023-12-20T06:57:42;6.40;99.90
9466;DHT22;4771;48.726;9.006;2023-12-20T07:00:12;6.40;99.90
9466;DHT22;4771;48.726;9.006;2023-12-20T07:02:39;6.40;99.90
9466;DHT22;4771;48.726;9.006;2023-12-20T07:05:07;6.30;99.90
9466;DHT22;4771;48.726;9.006;2023-12-20T07:07:34;6.20;99.90
9466;DHT22;4771;48.726;9.006;2023-12-20T07:10:01;6.20;99.90
9466;DHT22;4771;48.726;9.006;2023-12-20T07:12:27;6.20;99.90
9466;DHT22;4771;48.726;9.006;2023-12-20T07:14:56;6.20;99.90
9466;DHT22;4771;48.726;9.006;2023-12-20T07:17:23;6.10;99.90
9466;DHT22;4771;48.726;9.006;2023-12-20T07:19:49;6.10;99.90
9466;DHT22;4771;48.726;9.006;2023-12-20T07:22:16;6.10;99.90
9466;DHT22;4771;48.726;9.006;2023-12-20T07:24:43;6.10;99.90
9466;DHT22;4771;48.726;9.006;2023-12-20T07:27:11;5.90;99.90
9466;DHT22;4771;48.726;9.006;2023-12-20T07:29:38;5.90;99.90
9466;DHT22;4771;48.726;9.006;2023-12-20T07:32:06;5.90;99.90
9466;DHT22;4771;48.726;9.006;2023-12-20T07:34:34;5.90;99.90
9466;DHT22;4771;48.726;9.006;2023-12-20T07:37:00;5.90;99.90
9466;DHT22;4771;48.726;9.006;2023-12-20T07:39:27;5.90;99.90
9466;DHT22;4771;48.726;9.006;2023-12-20T07:41:54;5.80;99.90
9466;DHT22;4771;48.726;9.006;2023-12-20T07:44:21;5.60;99.90
9466;DHT22;4771;48.726;9.006;2023-12-20T07:46:48;5.70;99.90
9466;DHT22;4771;48.726;9.006;2023-12-20T07:49:16;5.60;99.90
9466;DHT22;4771;48.726;9.006;2023-12-20T07:51:43;5.70;99.90
9466;DHT22;4771;48.726;9.006;2023-12-20T07:54:10;5.70;99.90
9466;DHT22;4771;48.726;9.006;2023-12-20T07:56:37;5.50;99.90
9466;DHT22;4771;48.726;9.006;2023-12-20T07:59:05;5.50;99.90
9466;DHT22;4771;48.726;9.006;2023-12-20T08:01:32;5.40;99.90
9466;DHT22;4771;48.726;9.006;2023-12-20T08:03:59;5.50;99.90
9466;DHT22;4771;48.726;9.006;2023-12-20T08:06:27;5.50;99.90
9466;DHT22;4771;48.726;9.006;2023-12-20T08:08:54;5.40;99.90
9466;DHT22;4771;48.726;9.006;2023-12-20T08:11:21;5.50;99.90
9466;DHT22;4771;48.726;9.006;2023-12-20T08:13:48;5.50;99.90
9466;DHT22;4771;48.726;9.006;2023-12-20T08:16:15;5.50;99.90
9466;DHT22;4771;48.726;9.006;2023-12-20T08:18:43;5.50;99.90
9466;DHT22;4771;48.726;9.006;2023-12-20T08:21:09;5.60;99.90
9466;DHT22;4771;48.726;9.006;2023-12-20T08:23:38;5.40;99.90
9466;DHT22;4771;48.726;9.006;2023-12-20T08:26:05;5.50;99.90
9466;DHT22;4771;48.726;9.006;2023-12-20T08:28:32;5.50;99.90
9466;DHT22;4771;48.726;9.006;2023-12-20T08:31:00;5.50;99.90
9466;DHT22;4771;48.726;9.006;2023-12-20T08:33:27;5.40;99.90
9466;DHT22;4771;48.726;9.006;2023-12-20T08:35:54;5.30;99.90
9466;DHT22;4771;48.726;9.006;2023-12-20T08:38:20;5.30;99.90
9466;DHT22;4771;48.726;9.006;2023-12-20T08:40:49;5.20;99.90
9466;DHT22;4771;48.726;9.006;2023-12-20T08:43:15;5.20;99.90
9466;DHT22;4771;48.726;9.006;2023-12-20T08:45:42;5.30;99.90
9466;DHT22;4771;48.726;9.006;2023-12-20T08:48:09;5.30;99.90
9466;DHT22;4771;48.726;9.006;2023-12-20T08:50:36;5.30;99.90
9466;DHT22;4771;48.726;9.006;2023-12-20T08:53:04;5.20;99.90
9466;DHT22;4771;48.726;9.006;2023-12-20T08:55:31;5.20;99.90
9466;DHT22;4771;48.726;9.006;2023-12-20T08:57:59;5.10;99.90
9466;DHT22;4771;48.726;9.006;2023-12-20T09:00:26;5.10;99.90
9466;DHT22;4771;48.726;9.006;2023-12-20T09:02:53;5.10;99.90
9466;DHT22;4771;48.726;9.006;2023-12-20T09:05:20;5.10;99.90
9466;DHT22;4771;48.726;9.006;2023-12-20T09:07:48;5.10;99.90
9466;DHT22;4771;48.726;9.006;2023-12-20T09:10:14;5.10;99.90
9466;DHT22;4771;48.726;9.006;2023-12-20T09:12:41;5.20;99.90
9466;DHT22;4771;48.726;9.006;2023-12-20T09:15:09;5.20;99.90
9466;DHT22;4771;48.726;9.006;2023-12-20T09:17:36;5.30;99.90
9466;DHT22;4771;48.726;9.006;2023-12-20T09:20:04;5.50;99.90
9466;DHT22;4771;48.726;9.006;2023-12-20T09:22:32;5.50;99.90
9466;DHT22;4771;48.726;9.006;2023-12-20T09:24:59;5.60;99.90
9466;DHT22;4771;48.726;9.006;2023-12-20T09:27:27;5.60;99.90
9466;DHT22;4771;48.726;9.006;2023-12-20T09:29:54;5.70;99.90
9466;DHT22;4771;48.726;9.006;2023-12-20T09:32:22;5.80;99.90
9466;DHT22;4771;48.726;9.006;2023-12-20T09:34:49;5.80;99.90
9466;DHT22;4771;48.726;9.006;2023-12-20T09:37:16;5.80;99.90
9466;DHT22;4771;48.726;9.006;2023-12-20T09:39:42;5.80;99.90
9466;DHT22;4771;48.726;9.006;2023-12-20T09:42:11;5.80;99.90
9466;DHT22;4771;48.726;9.006;2023-12-20T09:44:42;5.90;99.90
9466;DHT22;4771;48.726;9.006;2023-12-20T09:47:10;5.90;99.90
9466;DHT22;4771;48.726;9.006;2023-12-20T09:49:38;6.00;99.90
9466;DHT22;4771;48.726;9.006;2023-12-20T09:52:07;6.10;99.90
9466;DHT22;4771;48.726;9.006;2023-12-20T09:54:36;6.20;99.90
9466;DHT22;4771;48.726;9.006;2023-12-20T09:57:03;6.20;99.90
9466;DHT22;4771;48.726;9.006;2023-12-20T09:59:30;6.10;99.90
9466;DHT22;4771;48.726;9.006;2023-12-20T10:01:57;6.30;99.90
9466;DHT22;4771;48.726;9.006;2023-12-20T10:04:24;6.30;99.90
9466;DHT22;4771;48.726;9.006;2023-12-20T10:06:52;6.30;99.90
9466;DHT22;4771;48.726;9.006;2023-12-20T10:09:19;6.20;99.90
9466;DHT22;4771;48.726;9.006;2023-12-20T10:11:46;6.30;99.90
9466;DHT22;4771;48.726;9.006;2023-12-20T10:14:13;6.20;99.90
9466;DHT22;4771;48.726;9.006;2023-12-20T10:16:41;6.30;99.90
9466;DHT22;4771;48.726;9.006;2023-12-20T10:19:08;6.20;99.90
9466;DHT22;4771;48.726;9.006;2023-12-20T10:21:35;6.10;99.90
9466;DHT22;4771;48.726;9.006;2023-12-20T10:24:03;6.10;99.90
9466;DHT22;4771;48.726;9.006;2023-12-20T10:26:30;6.10;99.90
9466;DHT22;4771;48.726;9.006;2023-12-20T10:29:00;6.00;99.90
9466;DHT22;4771;48.726;9.006;2023-12-20T10:31:30;6.00;99.90
9466;DHT22;4771;48.726;9.006;2023-12-20T10:33:57;5.90;99.90
9466;DHT22;4771;48.726;9.006;2023-12-20T10:36:26;5.90;99.90
9466;DHT22;4771;48.726;9.006;2023-12-20T10:38:54;5.90;99.90
9466;DHT22;4771;48.726;9.006;2023-12-20T10:41:26;6.00;99.90
9466;DHT22;4771;48.726;9.006;2023-12-20T10:43:56;5.90;99.90
9466;DHT22;4771;48.726;9.006;2023-12-20T10:46:25;5.90;99.90
9466;DHT22;4771;48.726;9.006;2023-12-20T10:48:54;6.00;99.90
9466;DHT22;4771;48.726;9.006;2023-12-20T10:51:21;5.90;99.90
9466;DHT22;4771;48.726;9.006;2023-12-20T10:53:49;5.90;99.90
9466;DHT22;4771;48.726;9.006;2023-12-20T10:56:17;5.80;99.90
9466;DHT22;4771;48.726;9.006;2023-12-20T10:58:47;5.60;99.90
9466;DHT22;4771;48.726;9.006;2023-12-20T11:01:15;5.50;99.90
9466;DHT22;4771;48.726;9.006;2023-12-20T11:03:46;5.60;99.90
9466;DHT22;4771;48.726;9.006;2023-12-20T11:06:26;5.60;99.90
9466;DHT22;4771;48.726;9.006;2023-12-20T11:08:59;5.50;99.90
9466;DHT22;4771;48.726;9.006;2023-12-20T11:11:39;5.50;99.90
9466;DHT22;4771;48.726;9.006;2023-12-20T11:14:15;5.50;99.90
9466;DHT22;4771;48.726;9.006;2023-12-20T11:16:44;5.40;99.90
9466;DHT22;4771;48.726;9.006;2023-12-20T11:19:12;5.50;99.90
9466;DHT22;4771;48.726;9.006;2023-12-20T11:21:40;5.60;99.90
9466;DHT22;4771;48.726;9.006;2023-12-20T11:24:07;5.60;99.90
9466;DHT22;4771;48.726;9.006;2023-12-20T11:26:34;5.50;99.90
9466;DHT22;4771;48.726;9.006;2023-12-20T11:29:30;5.50;99.90
9466;DHT22;4771;48.726;9.006;2023-12-20T11:31:57;5.50;99.90
9466;DHT22;4771;48.726;9.006;2023-12-20T11:34:27;5.40;99.90
9466;DHT22;4771;48.726;9.006;2023-12-20T11:36:58;5.40;99.90
9466;DHT22;4771;48.726;9.006;2023-12-20T11:39:26;5.30;99.90
9466;DHT22;4771;48.726;9.006;2023-12-20T11:41:55;5.40;99.90
9466;DHT22;4771;48.726;9.006;2023-12-20T11:44:23;5.50;99.90
9466;DHT22;4771;48.726;9.006;2023-12-20T11:46:53;5.50;99.90
9466;DHT22;4771;48.726;9.006;2023-12-20T11:49:23;5.50;99.90
9466;DHT22;4771;48.726;9.006;2023-12-20T11:51:50;5.50;99.90
9466;DHT22;4771;48.726;9.006;2023-12-20T11:54:17;5.30;99.90
9466;DHT22;4771;48.726;9.006;2023-12-20T11:56:45;5.30;99.90
9466;DHT22;4771;48.726;9.006;2023-12-20T11:59:12;5.20;99.90
9466;DHT22;4771;48.726;9.006;2023-12-20T12:01:39;5.30;99.90
9466;DHT22;4771;48.726;9.006;2023-12-20T12:04:07;5.30;99.90
9466;DHT22;4771;48.726;9.006;2023-12-20T12:06:34;5.30;99.90
9466;DHT22;4771;48.726;9.006;2023-12-20T12:09:01;5.30;99.90
9466;DHT22;4771;48.726;9.006;2023-12-20T12:11:29;5.30;99.90
9466;DHT22;4771;48.726;9.006;2023-12-20T12:13:57;5.30;99.90
9466;DHT22;4771;48.726;9.006;2023-12-20T12:16:25;5.40;99.90
9466;DHT22;4771;48.726;9.006;2023-12-20T12:18:56;5.40;99.90
9466;DHT22;4771;48.726;9.006;2023-12-20T12:21:25;5.50;99.90
9466;DHT22;4771;48.726;9.006;2023-12-20T12:23:52;5.60;99.90
9466;DHT22;4771;48.726;9.006;2023-12-20T12:26:19;5.70;99.90
9466;DHT22;4771;48.726;9.006;2023-12-20T12:28:46;5.60;99.90
9466;DHT22;4771;48.726;9.006;2023-12-20T12:31:17;5.60;99.90
9466;DHT22;4771;48.726;9.006;2023-12-20T12:33:44;5.70;99.90
9466;DHT22;4771;48.726;9.006;2023-12-20T12:36:12;5.70;99.90
9466;DHT22;4771;48.726;9.006;2023-12-20T12:38:43;5.80;99.90
9466;DHT22;4771;48.726;9.006;2023-12-20T12:41:12;5.80;99.90
9466;DHT22;4771;48.726;9.006;2023-12-20T12:43:40;5.90;99.90
9466;DHT22;4771;48.726;9.006;2023-12-20T12:46:07;5.90;99.90
9466;DHT22;4771;48.726;9.006;2023-12-20T12:48:34;6.00;99.90
9466;DHT22;4771;48.726;9.006;2023-12-20T12:51:01;6.00;99.90
9466;DHT22;4771;48.726;9.006;2023-12-20T12:53:28;6.00;99.90
9466;DHT22;4771;48.726;9.006;2023-12-20T12:55:56;5.90;99.90
9466;DHT22;4771;48.726;9.006;2023-12-20T12:58:23;5.90;99.90
9466;DHT22;4771;48.726;9.006;2023-12-20T13:00:50;5.90;99.90
9466;DHT22;4771;48.726;9.006;2023-12-20T13:03:17;6.00;99.90
9466;DHT22;4771;48.726;9.006;2023-12-20T13:05:44;6.00;99.90
9466;DHT22;4771;48.726;9.006;2023-12-20T13:08:12;6.20;99.90
9466;DHT22;4771;48.726;9.006;2023-12-20T13:10:40;6.10;99.90
9466;DHT22;4771;48.726;9.006;2023-12-20T13:13:08;6.20;99.90
9466;DHT22;4771;48.726;9.006;2023-12-20T13:15:35;6.10;99.90
9466;DHT22;4771;48.726;9.006;2023-12-20T13:18:01;6.10;99.90
9466;DHT22;4771;48.726;9.006;2023-12-20T13:20:30;6.20;99.90
9466;DHT22;4771;48.726;9.006;2023-12-20T13:22:57;6.20;99.90
9466;DHT22;4771;48.726;9.006;2023-12-20T13:25:24;6.10;99.90
9466;DHT22;4771;48.726;9.006;2023-12-20T13:27:50;6.10;99.90
9466;DHT22;4771;48.726;9.006;2023-12-20T13:30:19;6.10;99.90
9466;DHT22;4771;48.726;9.006;2023-12-20T13:32:45;6.10;99.90
9466;DHT22;4771;48.726;9.006;2023-12-20T13:35:12;6.20;99.90
9466;DHT22;4771;48.726;9.006;2023-12-20T13:37:39;6.10;99.90
9466;DHT22;4771;48.726;9.006;2023-12-20T13:40:07;6.20;99.90
9466;DHT22;4771;48.726;9.006;2023-12-20T13:42:34;6.10;99.90
9466;DHT22;4771;48.726;9.006;2023-12-20T13:45:01;6.10;99.90
9466;DHT22;4771;48.726;9.006;2023-12-20T13:47:31;6.20;99.90
9466;DHT22;4771;48.726;9.006;2023-12-20T13:49:58;6.10;99.90
9466;DHT22;4771;48.726;9.006;2023-12-20T13:52:25;6.00;99.90
9466;DHT22;4771;48.726;9.006;2023-12-20T13:54:52;6.00;99.90
9466;DHT22;4771;48.726;9.006;2023-12-20T13:57:19;6.10;99.90
9466;DHT22;4771;48.726;9.006;2023-12-20T13:59:46;6.00;99.90
9466;DHT22;4771;48.726;9.006;2023-12-20T14:02:13;5.90;99.90
9466;DHT22;4771;48.726;9.006;2023-12-20T14:04:42;5.90;99.90
9466;DHT22;4771;48.726;9.006;2023-12-20T14:07:08;5.70;99.90
9466;DHT22;4771;48.726;9.006;2023-12-20T14:09:35;5.70;99.90
9466;DHT22;4771;48.726;9.006;2023-12-20T14:12:03;5.70;99.90
9466;DHT22;4771;48.726;9.006;2023-12-20T14:14:30;5.60;99.90
9466;DHT22;4771;48.726;9.006;2023-12-20T14:16:56;5.60;99.90
9466;DHT22;4771;48.726;9.006;2023-12-20T14:19:23;5.60;99.90
9466;DHT22;4771;48.726;9.006;2023-12-20T14:21:51;5.60;99.90
9466;DHT22;4771;48.726;9.006;2023-12-20T14:24:18;5.70;99.90
9466;DHT22;4771;48.726;9.006;2023-12-20T14:26:45;5.70;99.90
9466;DHT22;4771;48.726;9.006;2023-12-20T14:29:12;5.80;99.90
9466;DHT22;4771;48.726;9.006;2023-12-20T14:31:39;5.80;99.90
9466;DHT22;4771;48.726;9.006;2023-12-20T14:34:06;5.80;99.90
9466;DHT22;4771;48.726;9.006;2023-12-20T14:36:34;5.80;99.90
9466;DHT22;4771;48.726;9.006;2023-12-20T14:39:02;5.60;99.90
9466;DHT22;4771;48.726;9.006;2023-12-20T14:41:30;5.60;99.90
9466;DHT22;4771;48.726;9.006;2023-12-20T14:43:56;5.80;99.90
9466;DHT22;4771;48.726;9.006;2023-12-20T14:46:22;5.70;99.90
9466;DHT22;4771;48.726;9.006;2023-12-20T14:48:49;5.80;99.90
9466;DHT22;4771;48.726;9.006;2023-12-20T14:51:16;5.70;99.90
9466;DHT22;4771;48.726;9.006;2023-12-20T14:53:43;5.90;99.90
9466;DHT22;4771;48.726;9.006;2023-12-20T14:56:11;5.90;99.90
9466;DHT22;4771;48.726;9.006;2023-12-20T14:58:38;6.00;99.90
9466;DHT22;4771;48.726;9.006;2023-12-20T15:01:05;6.00;99.90
9466;DHT22;4771;48.726;9.006;2023-12-20T15:03:34;6.00;99.90
9466;DHT22;4771;48.726;9.006;2023-12-20T15:06:01;6.10;99.90
9466;DHT22;4771;48.726;9.006;2023-12-20T15:08:27;6.10;99.90
9466;DHT22;4771;48.726;9.006;2023-12-20T15:10:54;6.10;99.90
9466;DHT22;4771;48.726;9.006;2023-12-20T15:13:23;6.20;99.90
9466;DHT22;4771;48.726;9.006;2023-12-20T15:15:49;6.10;99.90
9466;DHT22;4771;48.726;9.006;2023-12-20T15:18:16;6.00;99.90
9466;DHT22;4771;48.726;9.006;2023-12-20T15:20:43;6.00;99.90
9466;DHT22;4771;48.726;9.006;2023-12-20T15:23:13;6.00;99.90
9466;DHT22;4771;48.726;9.006;2023-12-20T15:25:40;6.00;99.90
9466;DHT22;4771;48.726;9.006;2023-12-20T15:28:07;5.90;99.90
9466;DHT22;4771;48.726;9.006;2023-12-20T15:30:35;5.90;99.90
9466;DHT22;4771;48.726;9.006;2023-12-20T15:33:03;5.90;99.90
9466;DHT22;4771;48.726;9.006;2023-12-20T15:35:30;5.90;99.90
9466;DHT22;4771;48.726;9.006;2023-12-20T15:37:57;5.90;99.90
9466;DHT22;4771;48.726;9.006;2023-12-20T15:40:25;5.80;99.90
9466;DHT22;4771;48.726;9.006;2023-12-20T15:42:51;5.80;99.90
9466;DHT22;4771;48.726;9.006;2023-12-20T15:45:19;5.80;99.90
9466;DHT22;4771;48.726;9.006;2023-12-20T15:47:47;5.80;99.90
9466;DHT22;4771;48.726;9.006;2023-12-20T15:50:14;5.80;99.90
9466;DHT22;4771;48.726;9.006;2023-12-20T15:52:42;5.80;99.90
9466;DHT22;4771;48.726;9.006;2023-12-20T15:55:09;5.80;99.90
9466;DHT22;4771;48.726;9.006;2023-12-20T15:57:36;5.80;99.90
9466;DHT22;4771;48.726;9.006;2023-12-20T16:00:04;5.80;99.90
9466;DHT22;4771;48.726;9.006;2023-12-20T16:02:31;5.80;99.90
9466;DHT22;4771;48.726;9.006;2023-12-20T16:04:59;5.80;99.90
9466;DHT22;4771;48.726;9.006;2023-12-20T16:07:26;5.90;99.90
9466;DHT22;4771;48.726;9.006;2023-12-20T16:09:53;5.90;99.90
9466;DHT22;4771;48.726;9.006;2023-12-20T16:12:20;5.90;99.90
9466;DHT22;4771;48.726;9.006;2023-12-20T16:14:47;5.90;99.90
9466;DHT22;4771;48.726;9.006;2023-12-20T16:17:13;5.90;99.90